Norfolk Naval Air Station, Virginia
Current Conditions -  °F | °C
As of 2:59 PM on Friday 21 Nov 2014 (Local Time) from KNGU Reporting Station
Clear Clear  
Wind Chill: 39°   Ceiling: Unl
Heat Index: 45°   Visibility: 10mi
Dew Point: 14°   Wind: 13mph
Humidity: 29%   Direction: 330°NNW
Pressure: 30.46"   Gusts: NA
Location:  36.9343°N, 76.284°W
Report Text: KNGU 211959Z 33011KT 10SM CLR 07/M10 A3046 RMK AO2 SLP315 T00721100
Loading
Personal Weather Stations






























Interactive Weather Map New forecast layout! Learn more

10-Day Weather Forecast

Advertisements
Track Severe Weather on mobile